Time;durP1;ratioP1;P1;durP2;ratioP2;P2;SDS_P1;SDS_P2;PMS_P1;PMS_P2;Temp;Humidity;BMP_temperature;BMP_pressure;BME280_temperature;BME280_humidity;BME280_pressure;Samples;Min_cycle;Max_cycle;Signal;HPM_P1;HPM_P2
2021/12/10 00:00:16;;;;;;;47.55;25.13;;;;;;;5.51;96.01;100156.84;5035048;28;20258;-79
2021/12/10 00:02:46;;;;;;;46.58;24.90;;;;;;;5.51;96.30;100150.84;5035059;28;20188;-81
2021/12/10 00:05:14;;;;;;;46.65;24.13;;;;;;;5.53;97.61;100162.09;5034564;28;20285;-79
2021/12/10 00:07:41;;;;;;;56.10;27.02;;;;;;;5.52;97.65;100153.56;5034859;28;20214;-79
2021/12/10 00:10:11;;;;;;;49.88;25.50;;;;;;;5.48;97.81;100159.09;5034375;28;20182;-79
2021/12/10 00:12:45;;;;;;;42.20;23.90;;;;;;;5.47;97.40;100156.38;5034628;28;20255;-79
2021/12/10 00:15:12;;;;;;;44.97;24.63;;;;;;;5.45;97.17;100156.22;5034594;28;20183;-78
2021/12/10 00:17:38;;;;;;;44.20;24.40;;;;;;;5.35;97.39;100143.31;5034229;28;20583;-80
2021/12/10 00:20:07;;;;;;;42.50;23.35;;;;;;;5.46;97.76;100170.72;5034100;28;20168;-79
2021/12/10 00:22:42;;;;;;;45.78;23.80;;;;;;;5.40;97.86;100167.53;5034578;28;20573;-79
2021/12/10 00:25:18;;;;;;;44.90;23.97;;;;;;;5.44;97.72;100164.56;5034586;28;20167;-79
2021/12/10 00:27:44;;;;;;;47.10;25.05;;;;;;;5.42;97.41;100167.69;5016569;28;20715;-79
2021/12/10 00:30:33;;;;;;;48.25;25.13;;;;;;;5.40;97.92;100164.13;5034098;28;20172;-78
2021/12/10 00:33:11;;;;;;;49.17;23.67;;;;;;;5.31;97.81;100147.16;5034355;28;20658;-78
2021/12/10 00:35:39;;;;;;;41.47;23.03;;;;;;;5.40;97.87;100159.03;5033422;28;20171;-78
2021/12/10 00:38:05;;;;;;;45.58;24.23;;;;;;;5.39;97.66;100144.50;5033597;28;20642;-79
2021/12/10 00:40:31;;;;;;;44.22;23.45;;;;;;;5.24;97.40;100121.88;5034028;28;20680;-79
2021/12/10 00:42:57;;;;;;;41.07;22.80;;;;;;;5.41;97.47;100148.13;5033902;28;20602;-80
2021/12/10 00:45:24;;;;;;;46.60;24.52;;;;;;;5.42;97.66;100157.53;5034076;28;20187;-79
2021/12/10 00:47:50;;;;;;;47.63;24.15;;;;;;;5.45;97.50;100152.75;5034166;28;20466;-79
2021/12/10 00:50:20;;;;;;;42.58;23.40;;;;;;;5.45;97.28;100137.50;5033849;28;20176;-79
2021/12/10 00:52:46;;;;;;;47.58;24.50;;;;;;;5.43;96.95;100124.66;5034116;28;20215;-79
2021/12/10 00:55:13;;;;;;;43.25;24.38;;;;;;;5.47;97.38;100129.31;5034240;28;20302;-79
2021/12/10 00:57:39;;;;;;;44.47;24.13;;;;;;;5.48;97.68;100132.75;5034065;28;20176;-79
2021/12/10 01:00:14;;;;;;;46.08;23.27;;;;;;;5.28;97.78;100105.31;5033626;28;20186;-78
2021/12/10 01:02:40;;;;;;;40.22;23.05;;;;;;;5.40;98.70;100118.38;5033679;28;20195;-80
2021/12/10 01:05:07;;;;;;;43.17;23.33;;;;;;;5.38;99.17;100128.38;5033440;28;20191;-78
2021/12/10 01:07:34;;;;;;;40.00;22.58;;;;;;;5.40;98.91;100119.28;5033624;28;20199;-78
2021/12/10 01:10:14;;;;;;;40.17;22.27;;;;;;;5.33;98.49;100111.78;5033680;28;20179;-78
2021/12/10 01:12:51;;;;;;;48.20;23.73;;;;;;;5.30;97.49;100106.38;5033668;28;20167;-80
2021/12/10 01:26:37;;;;;;;33.60;19.67;;;;;;;5.05;96.79;100057.25;5033551;28;20175;-78
2021/12/10 01:29:04;;;;;;;33.20;19.87;;;;;;;5.27;96.53;100098.44;5033304;28;20204;-79
2021/12/10 01:31:29;;;;;;;33.25;19.58;;;;;;;5.28;97.20;100101.13;5032916;28;20172;-78
2021/12/10 01:33:55;;;;;;;29.30;17.88;;;;;;;5.16;96.77;100071.03;5033057;28;20183;-79
2021/12/10 01:36:22;;;;;;;33.97;18.83;;;;;;;5.13;96.65;100058.03;5033320;28;20167;-77
2021/12/10 01:38:50;;;;;;;32.00;18.83;;;;;;;5.30;96.78;100080.97;5033189;28;20216;-80
2021/12/10 01:41:18;;;;;;;31.53;18.00;;;;;;;5.24;96.09;100071.09;5033370;28;20199;-79
2021/12/10 01:43:47;;;;;;;26.87;17.00;;;;;;;5.29;96.54;100069.00;5015482;28;20172;-78
2021/12/10 01:46:18;;;;;;;28.10;17.17;;;;;;;5.09;96.29;100044.13;5032880;28;20651;-78
2021/12/10 01:48:50;;;;;;;25.75;16.70;;;;;;;5.26;96.57;100068.69;5032897;28;20206;-79
2021/12/10 01:51:19;;;;;;;30.60;18.60;;;;;;;4.87;95.75;100013.09;5033094;28;20557;-78
2021/12/10 01:53:47;;;;;;;29.10;18.33;;;;;;;5.18;96.63;100061.94;5033046;28;20211;-79
2021/12/10 01:56:21;;;;;;;27.53;17.37;;;;;;;5.24;97.58;100065.13;5032876;28;20164;-78
2021/12/10 01:58:47;;;;;;;26.17;17.33;;;;;;;5.16;96.58;100043.09;5032475;28;20655;-79
2021/12/10 02:01:18;;;;;;;32.80;17.58;;;;;;;5.24;96.51;100049.88;5032556;28;20192;-78
2021/12/10 02:03:45;;;;;;;29.17;17.60;;;;;;;5.22;97.25;100047.16;5032339;28;20172;-78
2021/12/10 02:06:11;;;;;;;29.30;17.48;;;;;;;5.21;96.91;100036.88;5032056;28;20255;-78
2021/12/10 02:08:38;;;;;;;29.87;18.13;;;;;;;5.21;96.78;100042.84;5032285;28;20199;-79
2021/12/10 02:11:05;;;;;;;29.33;17.67;;;;;;;5.19;97.16;100045.97;5032334;28;20267;-78
2021/12/10 02:13:31;;;;;;;27.40;17.73;;;;;;;5.19;97.28;100036.69;5032407;28;20234;-79
2021/12/10 02:15:57;;;;;;;27.17;16.70;;;;;;;5.16;97.36;100038.91;5032253;28;20184;-78
2021/12/10 02:18:23;;;;;;;27.07;17.33;;;;;;;5.19;97.80;100044.31;5032398;28;20555;-78
2021/12/10 02:20:50;;;;;;;23.97;15.90;;;;;;;5.18;96.81;100041.63;5032342;28;20179;-78
2021/12/10 02:23:16;;;;;;;29.70;15.60;;;;;;;5.21;96.88;100035.22;5032316;28;20643;-78
2021/12/10 02:25:41;;;;;;;30.67;17.80;;;;;;;5.21;96.39;100050.47;5014256;28;20722;-79
2021/12/10 02:28:10;;;;;;;29.20;17.08;;;;;;;5.20;97.36;100040.13;5031912;28;20567;-79
2021/12/10 02:30:36;;;;;;;29.07;18.10;;;;;;;5.19;96.53;100046.84;5014227;28;20245;-79
2021/12/10 02:33:03;;;;;;;26.92;16.63;;;;;;;5.18;97.42;100046.72;5032204;28;20172;-79
2021/12/10 02:35:29;;;;;;;30.23;18.07;;;;;;;5.07;97.42;100018.56;5031839;28;20172;-79
2021/12/10 02:37:54;;;;;;;30.20;18.50;;;;;;;5.16;96.88;100027.88;5032049;28;20218;-79
2021/12/10 02:40:23;;;;;;;31.63;18.33;;;;;;;5.11;96.49;100017.25;5032002;28;20566;-77
2021/12/10 02:42:52;;;;;;;32.67;19.40;;;;;;;4.96;96.83;99990.31;5031781;28;20177;-79
2021/12/10 02:45:19;;;;;;;29.53;18.20;;;;;;;5.21;97.51;100035.22;5013943;28;20172;-79
2021/12/10 02:47:47;;;;;;;34.40;18.42;;;;;;;5.21;97.64;100022.53;5032127;28;20215;-79
2021/12/10 02:50:15;;;;;;;34.23;19.33;;;;;;;5.00;97.78;99974.63;5031381;28;20180;-79
2021/12/10 02:52:41;;;;;;;33.13;18.93;;;;;;;5.16;98.03;100018.59;5031960;28;20226;-79
2021/12/10 02:55:15;;;;;;;40.70;22.70;;;;;;;4.75;98.22;99931.53;5031543;28;20662;-78
2021/12/10 02:57:44;;;;;;;39.83;21.90;;;;;;;5.20;97.42;100002.97;5031414;28;20180;-79
2021/12/10 03:00:14;;;;;;;34.20;20.40;;;;;;;5.07;97.75;99977.03;5030883;28;20172;-79
2021/12/10 03:02:40;;;;;;;36.08;21.55;;;;;;;5.24;97.61;100010.13;5031641;28;20195;-79
2021/12/10 03:05:09;;;;;;;34.37;18.73;;;;;;;5.23;97.17;100004.88;5031383;28;20175;-79
2021/12/10 03:07:36;;;;;;;35.90;19.35;;;;;;;5.25;97.29;99996.69;5031862;28;20249;-78
2021/12/10 03:10:06;;;;;;;33.40;19.47;;;;;;;5.21;97.39;99983.53;5031315;28;20195;-79
2021/12/10 03:12:32;;;;;;;34.17;18.73;;;;;;;5.21;97.98;99978.44;5014230;28;20195;-79
2021/12/10 03:14:58;;;;;;;34.50;19.03;;;;;;;4.71;98.00;99876.16;5031616;28;20686;-80
2021/12/10 03:17:28;;;;;;;34.13;17.52;;;;;;;5.16;98.69;99962.72;5031525;28;20663;-79
2021/12/10 03:19:55;;;;;;;33.92;19.50;;;;;;;5.25;98.12;99983.09;5031158;28;20168;-79
2021/12/10 03:22:21;;;;;;;30.20;17.45;;;;;;;5.25;97.73;99975.47;5031305;28;20183;-78
2021/12/10 03:24:47;;;;;;;28.33;17.30;;;;;;;5.29;97.35;99980.09;5031302;28;20242;-78
2021/12/10 03:27:15;;;;;;;28.33;16.97;;;;;;;5.23;97.64;99970.25;5031583;28;20168;-78
2021/12/10 03:29:44;;;;;;;25.02;15.73;;;;;;;5.29;97.70;99967.41;5031505;28;20176;-79
2021/12/10 03:32:13;;;;;;;29.50;18.20;;;;;;;5.28;97.86;99966.50;5031323;28;20639;-80
2021/12/10 03:34:40;;;;;;;27.17;16.17;;;;;;;5.15;97.72;99942.28;5031830;28;20180;-78
2021/12/10 03:37:06;;;;;;;32.05;17.73;;;;;;;5.29;98.36;99969.94;5031669;28;20194;-79
2021/12/10 03:39:33;;;;;;;31.70;17.13;;;;;;;5.09;98.90;99930.75;5031680;28;20180;-80
2021/12/10 03:41:59;;;;;;;31.43;16.80;;;;;;;5.27;99.03;99963.84;5031310;28;20176;-78
2021/12/10 03:44:26;;;;;;;32.30;17.40;;;;;;;4.95;99.94;99898.00;5031264;28;20199;-78
2021/12/10 03:46:53;;;;;;;33.27;18.47;;;;;;;5.27;99.88;99961.28;5031329;28;20208;-79
2021/12/10 03:49:19;;;;;;;30.92;17.13;;;;;;;5.27;99.73;99964.72;5031102;28;20281;-78
2021/12/10 03:51:45;;;;;;;34.45;19.58;;;;;;;5.18;100.00;99955.28;5031271;28;20241;-79
2021/12/10 03:54:12;;;;;;;35.40;18.15;;;;;;;5.17;100.00;99950.94;5031412;28;20183;-79
2021/12/10 03:56:39;;;;;;;31.67;18.23;;;;;;;5.30;100.00;99961.59;5013952;28;20178;-78
2021/12/10 03:59:10;;;;;;;30.40;17.17;;;;;;;5.32;100.00;99948.28;5031170;28;20175;-79
2021/12/10 04:01:42;;;;;;;28.27;16.67;;;;;;;5.36;100.00;99948.59;5032250;28;20188;-79
2021/12/10 04:04:11;;;;;;;28.70;16.60;;;;;;;5.39;100.00;99946.34;5031293;28;20230;-79
2021/12/10 04:06:37;;;;;;;29.93;17.47;;;;;;;5.35;100.00;99950.22;5030856;28;20301;-79
2021/12/10 04:09:05;;;;;;;30.50;17.10;;;;;;;5.19;100.00;99930.03;5030639;28;20223;-79
2021/12/10 04:11:32;;;;;;;30.48;18.30;;;;;;;5.37;100.00;99955.47;5033342;28;20176;-79
2021/12/10 04:13:57;;;;;;;31.58;18.52;;;;;;;5.24;100.00;99930.50;5034397;28;20175;-79
2021/12/10 04:16:25;;;;;;;29.67;18.17;;;;;;;5.37;100.00;99950.41;5034432;28;20188;-79
2021/12/10 04:18:54;;;;;;;34.00;17.75;;;;;;;5.06;100.00;99907.59;5034579;28;20207;-79
2021/12/10 04:21:20;;;;;;;34.15;18.80;;;;;;;5.13;100.00;99898.94;5016801;28;20177;-78
2021/12/10 04:23:47;;;;;;;34.50;19.03;;;;;;;5.26;100.00;99932.44;5034528;28;20176;-79
2021/12/10 04:26:15;;;;;;;33.78;17.73;;;;;;;5.40;100.00;99955.78;5034232;28;20203;-78
2021/12/10 04:28:41;;;;;;;34.70;18.23;;;;;;;5.42;100.00;99962.81;5033951;28;20207;-79
2021/12/10 04:31:07;;;;;;;34.83;18.42;;;;;;;5.44;100.00;99951.16;5034288;28;20226;-79
2021/12/10 04:33:32;;;;;;;37.42;18.75;;;;;;;5.21;100.00;99908.22;5034017;28;20606;-79
2021/12/10 04:36:00;;;;;;;34.65;18.55;;;;;;;5.30;100.00;99926.94;5034225;28;20168;-80
2021/12/10 04:38:28;;;;;;;39.03;20.23;;;;;;;5.42;100.00;99941.56;5034377;28;20175;-79
2021/12/10 04:40:56;;;;;;;35.90;19.27;;;;;;;5.30;100.00;99926.94;5034063;28;20179;-80
2021/12/10 04:43:23;;;;;;;36.40;18.67;;;;;;;5.41;100.00;99948.31;5033820;28;20650;-77
2021/12/10 04:45:52;;;;;;;37.78;18.95;;;;;;;5.37;100.00;99947.88;5033885;28;20663;-77
2021/12/10 04:48:18;;;;;;;32.47;17.17;;;;;;;5.21;100.00;99920.94;5034098;28;20203;-78
2021/12/10 04:50:44;;;;;;;36.53;18.10;;;;;;;5.20;100.00;99942.00;5033721;28;20168;-78
2021/12/10 04:53:11;;;;;;;32.30;18.25;;;;;;;5.32;100.00;99955.00;5033752;28;20172;-78
2021/12/10 04:55:37;;;;;;;30.35;17.90;;;;;;;5.29;100.00;99954.69;5033859;28;20191;-78
2021/12/10 04:58:04;;;;;;;40.80;20.38;;;;;;;5.17;100.00;99933.16;5033956;28;20183;-78
2021/12/10 05:00:34;;;;;;;37.72;20.08;;;;;;;5.33;100.00;99961.91;5033497;28;20178;-77
2021/12/10 05:03:00;;;;;;;35.95;20.42;;;;;;;5.35;100.00;99942.63;5033672;28;20241;-78
2021/12/10 05:05:27;;;;;;;40.88;20.38;;;;;;;5.42;100.00;99942.50;5033613;28;20220;-77
2021/12/10 05:07:53;;;;;;;41.83;22.80;;;;;;;5.34;100.00;99907.81;5033717;28;20231;-76
2021/12/10 05:10:19;;;;;;;40.97;21.52;;;;;;;5.54;100.00;99927.53;5033414;28;20669;-77
2021/12/10 05:12:45;;;;;;;42.83;20.90;;;;;;;5.55;100.00;99927.72;5033517;28;20268;-78
2021/12/10 05:15:15;;;;;;;47.33;24.90;;;;;;;5.55;100.00;99931.91;5033205;28;20180;-78
2021/12/10 05:17:41;;;;;;;46.45;24.05;;;;;;;5.60;99.53;99942.50;5033347;28;20176;-77
2021/12/10 05:20:12;;;;;;;47.88;24.88;;;;;;;5.52;100.00;99940.13;5033250;28;20172;-76
2021/12/10 05:22:42;;;;;;;55.85;25.35;;;;;;;5.52;99.66;99945.19;5032445;28;20168;-77
2021/12/10 05:25:09;;;;;;;55.70;26.80;;;;;;;5.42;99.12;99921.25;5033285;28;20247;-77
2021/12/10 05:27:35;;;;;;;52.80;26.50;;;;;;;5.61;100.00;99960.47;5033168;28;20200;-77
2021/12/10 05:30:01;;;;;;;47.80;24.90;;;;;;;5.52;100.00;99937.56;5034110;28;20178;-74
2021/12/10 05:32:26;;;;;;;49.72;22.92;;;;;;;5.67;100.00;99960.16;5033034;28;20267;-76
2021/12/10 05:34:54;;;;;;;48.05;24.38;;;;;;;5.57;98.43;99960.88;5032425;28;20200;-75
2021/12/10 05:37:20;;;;;;;46.65;23.38;;;;;;;5.65;98.50;99975.25;5032791;28;20180;-75
2021/12/10 05:39:45;;;;;;;54.03;25.13;;;;;;;5.63;98.83;99968.22;5032581;28;20199;-75
2021/12/10 05:42:10;;;;;;;58.67;24.83;;;;;;;5.53;99.80;99954.59;5032928;28;20183;-78
2021/12/10 05:44:38;;;;;;;63.05;29.88;;;;;;;5.64;100.00;99965.84;5032660;28;20262;-80
2021/12/10 05:47:05;;;;;;;44.60;24.17;;;;;;;5.63;99.55;99970.75;5032574;28;20586;-77
2021/12/10 05:49:30;;;;;;;45.73;25.37;;;;;;;5.60;98.94;99965.38;5032576;28;20257;-78
2021/12/10 05:51:56;;;;;;;43.90;24.30;;;;;;;5.49;97.61;99944.88;5032669;28;20204;-78
2021/12/10 05:54:22;;;;;;;56.67;29.23;;;;;;;5.66;97.17;99953.28;5032349;28;20187;-78
2021/12/10 05:56:47;;;;;;;57.53;27.50;;;;;;;5.66;96.94;99963.44;5032424;28;20183;-77
2021/12/10 05:59:13;;;;;;;62.20;31.00;;;;;;;5.49;97.26;99962.69;5032613;28;20216;-76
2021/12/10 06:01:39;;;;;;;65.88;31.02;;;;;;;5.30;95.95;99937.09;5032420;28;20672;-75
2021/12/10 06:04:04;;;;;;;62.80;28.83;;;;;;;5.31;97.36;99968.47;5032307;28;20259;-75
2021/12/10 06:06:32;;;;;;;61.55;31.33;;;;;;;5.17;99.37;99983.94;5032037;28;20293;-75
2021/12/10 06:09:00;;;;;;;73.30;32.25;;;;;;;5.08;100.00;99986.47;5032269;28;20203;-75
2021/12/10 06:11:27;;;;;;;64.03;30.17;;;;;;;5.06;100.00;99990.50;5014307;28;20802;-75
2021/12/10 06:13:53;;;;;;;61.80;29.60;;;;;;;4.99;100.00;99991.50;5032262;28;20230;-76
2021/12/10 06:16:19;;;;;;;60.50;28.07;;;;;;;4.91;100.00;99978.78;5032377;28;20646;-74
2021/12/10 06:18:45;;;;;;;58.20;25.90;;;;;;;4.63;100.00;99963.25;5031994;28;20175;-76
2021/12/10 06:21:12;;;;;;;52.50;23.27;;;;;;;4.44;100.00;99975.69;5031832;28;20190;-76
2021/12/10 06:23:38;;;;;;;59.67;21.20;;;;;;;4.47;100.00;100030.94;5032222;28;20207;-76
2021/12/10 06:26:04;;;;;;;57.07;23.43;;;;;;;4.34;100.00;100026.22;5032143;28;20364;-76
2021/12/10 06:28:31;;;;;;;51.73;21.87;;;;;;;4.27;100.00;100038.97;5031917;28;20696;-77
2021/12/10 06:30:58;;;;;;;48.47;23.53;;;;;;;4.00;100.00;100015.06;5031580;28;20168;-78
2021/12/10 06:33:27;;;;;;;67.57;24.77;;;;;;;4.01;100.00;100029.50;5031627;28;20184;-78
2021/12/10 06:35:55;;;;;;;62.23;24.83;;;;;;;3.88;100.00;100019.72;5031429;28;20175;-77
2021/12/10 06:38:23;;;;;;;53.87;24.43;;;;;;;4.12;100.00;100041.69;5031846;28;20176;-76
2021/12/10 06:40:49;;;;;;;61.87;25.07;;;;;;;4.10;100.00;100057.47;5031581;28;20212;-76
2021/12/10 06:43:16;;;;;;;57.10;24.53;;;;;;;4.09;100.00;100051.50;5031450;28;20183;-77
2021/12/10 06:45:44;;;;;;;54.23;24.30;;;;;;;4.18;100.00;100046.53;5013825;28;20635;-77
2021/12/10 06:48:10;;;;;;;47.20;25.23;;;;;;;4.05;100.00;100021.53;5031396;28;20196;-76
2021/12/10 06:50:43;;;;;;;54.67;24.73;;;;;;;3.96;100.00;99991.72;5031781;28;20213;-77
2021/12/10 06:53:09;;;;;;;67.67;25.87;;;;;;;4.33;100.00;100070.97;5031791;28;20175;-76
2021/12/10 06:55:35;;;;;;;48.13;23.57;;;;;;;4.40;100.00;100067.44;5031521;28;20176;-76
2021/12/10 06:58:01;;;;;;;52.40;23.20;;;;;;;4.40;100.00;100063.25;5031335;28;20605;-76
2021/12/10 07:00:42;;;;;;;52.93;25.40;;;;;;;4.52;100.00;100070.38;5013625;28;20246;-77
2021/12/10 07:03:15;;;;;;;51.63;24.87;;;;;;;4.56;100.00;100083.53;5014077;28;20184;-76
2021/12/10 07:05:41;;;;;;;53.60;24.20;;;;;;;4.62;100.00;100080.72;5031300;28;20636;-76
2021/12/10 07:08:07;;;;;;;53.40;24.53;;;;;;;4.70;100.00;100074.78;5031278;28;20199;-76
2021/12/10 07:10:34;;;;;;;56.90;26.13;;;;;;;4.74;100.00;100071.88;5031516;28;20176;-76
2021/12/10 07:13:03;;;;;;;46.60;24.37;;;;;;;4.68;100.00;100060.19;5031594;28;20463;-76
2021/12/10 07:15:28;;;;;;;55.03;23.65;;;;;;;4.46;100.00;100016.47;5013949;28;20172;-76
2021/12/10 07:17:54;;;;;;;54.83;23.27;;;;;;;4.65;100.00;100054.78;5033144;28;20268;-76
2021/12/10 07:20:22;;;;;;;54.50;22.87;;;;;;;4.69;100.00;100067.03;5032429;28;20256;-75
2021/12/10 07:22:48;;;;;;;55.80;21.03;;;;;;;4.55;100.00;100065.63;5014064;28;20179;-76
2021/12/10 07:25:14;;;;;;;48.17;22.93;;;;;;;4.54;100.00;100079.03;5031896;28;20171;-77
2021/12/10 07:27:39;;;;;;;61.13;26.03;;;;;;;4.53;100.00;100074.69;5031898;28;20701;-75
2021/12/10 07:30:06;;;;;;;75.67;26.43;;;;;;;4.61;100.00;100092.53;5031810;28;20172;-77
2021/12/10 07:32:32;;;;;;;58.47;24.53;;;;;;;4.62;100.00;100093.41;5031435;28;20587;-77
2021/12/10 07:34:57;;;;;;;62.63;24.50;;;;;;;4.65;100.00;100098.81;5030893;28;20207;-76
2021/12/10 07:37:23;;;;;;;81.97;25.43;;;;;;;4.53;100.00;100069.63;5031104;28;20167;-77
2021/12/10 07:39:49;;;;;;;66.63;25.50;;;;;;;4.62;100.00;100073.13;5031222;28;20179;-77
2021/12/10 07:42:15;;;;;;;81.63;26.03;;;;;;;4.67;100.00;100102.38;5031073;28;20184;-77
2021/12/10 07:44:40;;;;;;;64.90;25.70;;;;;;;4.69;100.00;100100.94;5031395;28;20195;-75
2021/12/10 07:47:11;;;;;;;79.47;26.53;;;;;;;4.76;100.00;100110.06;5034674;28;20610;-77
2021/12/10 07:49:37;;;;;;;70.30;25.97;;;;;;;4.12;100.00;99998.59;5034923;28;20784;-76
2021/12/10 07:52:07;;;;;;;60.67;26.43;;;;;;;4.58;100.00;100086.25;5034749;28;20176;-76
2021/12/10 07:54:33;;;;;;;66.40;28.50;;;;;;;4.73;100.00;100113.19;5034911;28;20176;-76
2021/12/10 07:56:58;;;;;;;71.93;26.83;;;;;;;4.50;100.00;100065.13;5034931;28;20271;-77
2021/12/10 07:59:24;;;;;;;63.67;26.40;;;;;;;4.79;100.00;100115.47;5034597;28;20311;-76
2021/12/10 08:01:51;;;;;;;66.85;24.92;;;;;;;4.84;100.00;100124.47;5034750;28;20196;-77
2021/12/10 08:04:16;;;;;;;68.37;24.23;;;;;;;4.86;100.00;100123.00;5034591;28;20239;-76
2021/12/10 08:06:42;;;;;;;67.57;26.83;;;;;;;4.59;100.00;100108.31;5034403;28;20710;-76
2021/12/10 08:09:08;;;;;;;77.43;28.80;;;;;;;4.54;100.00;100079.03;5034626;28;20210;-76
2021/12/10 08:11:34;;;;;;;69.00;28.37;;;;;;;4.91;100.00;100133.63;5034578;28;20191;-77
2021/12/10 08:14:00;;;;;;;62.07;24.97;;;;;;;4.72;100.00;100086.03;5034589;28;20249;-77
2021/12/10 08:16:26;;;;;;;60.27;25.43;;;;;;;4.80;100.00;100097.00;5035376;28;20634;-77
2021/12/10 08:18:53;;;;;;;66.53;25.33;;;;;;;4.81;100.00;100114.00;5034813;28;20697;-74
2021/12/10 08:21:22;;;;;;;67.47;26.37;;;;;;;4.89;100.00;100117.31;5034566;28;20262;-76
2021/12/10 08:23:49;;;;;;;58.37;25.17;;;;;;;4.91;100.00;100111.69;5034652;28;20202;-76
2021/12/10 08:26:15;;;;;;;58.30;24.10;;;;;;;4.96;100.00;100104.56;5034441;28;20600;-77
2021/12/10 08:28:40;;;;;;;60.70;23.67;;;;;;;5.05;100.00;100103.88;5033890;28;20695;-76
2021/12/10 08:31:07;;;;;;;46.47;21.77;;;;;;;5.08;100.00;100111.78;5034219;28;20168;-76
2021/12/10 08:33:33;;;;;;;50.10;19.57;;;;;;;5.14;100.00;100120.78;5034554;28;20222;-76
2021/12/10 08:36:08;;;;;;;46.13;20.23;;;;;;;5.28;100.00;100116.38;5034093;28;20168;-76
2021/12/10 08:38:34;;;;;;;48.95;18.27;;;;;;;5.25;100.00;100105.00;5034136;28;20251;-77
2021/12/10 08:41:11;;;;;;;37.13;18.77;;;;;;;5.33;100.00;100121.94;5034083;28;20702;-77
2021/12/10 08:43:36;;;;;;;35.22;17.35;;;;;;;5.41;100.00;100113.44;5015906;28;20168;-76
2021/12/10 08:46:04;;;;;;;40.23;17.73;;;;;;;5.43;100.00;100118.69;5033860;28;20176;-77
2021/12/10 08:48:31;;;;;;;31.73;16.10;;;;;;;5.28;100.00;100116.38;5033786;28;20285;-76
2021/12/10 08:51:00;;;;;;;36.45;16.35;;;;;;;5.30;100.00;100122.53;5033920;28;20172;-77
2021/12/10 08:53:26;;;;;;;37.07;18.73;;;;;;;5.19;100.00;100104.38;5033445;28;20778;-75
2021/12/10 08:55:54;;;;;;;35.33;18.60;;;;;;;5.15;100.00;100103.16;5033882;28;20259;-76
2021/12/10 08:58:21;;;;;;;33.90;16.73;;;;;;;5.36;100.00;100121.31;5032679;28;20187;-78
2021/12/10 09:00:51;;;;;;;32.57;16.80;;;;;;;5.40;100.00;100115.84;5033769;28;20200;-76
2021/12/10 09:03:17;;;;;;;38.90;17.27;;;;;;;5.43;100.00;100114.50;5033748;28;20199;-76
2021/12/10 09:05:42;;;;;;;33.03;16.67;;;;;;;5.38;100.00;100091.91;5033431;28;20223;-77
2021/12/10 09:08:08;;;;;;;31.47;15.53;;;;;;;5.39;100.00;100075.91;5033480;28;20203;-77
2021/12/10 09:10:38;;;;;;;27.03;13.97;;;;;;;5.56;100.00;100092.13;5033540;28;20175;-77
2021/12/10 09:13:13;;;;;;;24.57;13.07;;;;;;;5.62;100.00;100090.97;5033269;28;20176;-77
2021/12/10 09:15:44;;;;;;;23.37;13.33;;;;;;;5.71;100.00;100109.69;5033378;28;20172;-78
2021/12/10 09:18:10;;;;;;;27.93;11.50;;;;;;;5.70;100.00;100118.03;5033309;28;20219;-78
2021/12/10 09:20:39;;;;;;;23.70;12.27;;;;;;;5.69;100.00;100112.06;5033156;28;20188;-76
2021/12/10 09:23:10;;;;;;;22.08;11.85;;;;;;;5.63;100.00;100095.28;5032880;28;20259;-77
2021/12/10 09:25:37;;;;;;;23.37;12.37;;;;;;;5.71;100.00;100092.78;5033594;28;20164;-77
2021/12/10 09:28:04;;;;;;;21.77;12.25;;;;;;;5.51;100.00;100049.22;5033412;28;20265;-76
2021/12/10 09:30:32;;;;;;;23.63;11.83;;;;;;;5.71;100.00;100091.91;5033166;28;20176;-76
2021/12/10 09:32:58;;;;;;;21.50;12.43;;;;;;;5.81;100.00;100079.34;5032754;28;20176;-75
2021/12/10 09:35:29;;;;;;;21.77;12.48;;;;;;;5.94;100.00;100094.22;5033029;28;20172;-76
2021/12/10 09:37:55;;;;;;;24.50;12.60;;;;;;;5.86;100.00;100060.38;5033053;28;20163;-76
2021/12/10 09:40:30;;;;;;;21.08;12.23;;;;;;;6.03;100.00;100084.97;5032943;28;20175;-79
2021/12/10 09:42:55;;;;;;;21.65;12.93;;;;;;;5.66;100.00;100015.16;5032624;28;20627;-76
2021/12/10 09:45:24;;;;;;;20.55;11.98;;;;;;;5.98;100.00;100091.22;5032853;28;20171;-76
2021/12/10 09:47:50;;;;;;;18.38;10.95;;;;;;;5.94;100.00;100089.13;5032743;28;20381;-78
2021/12/10 09:50:17;;;;;;;19.52;11.60;;;;;;;5.88;100.00;100074.13;5014706;28;20690;-76
2021/12/10 09:52:45;;;;;;;22.80;13.30;;;;;;;5.83;100.00;100049.91;5032845;28;20176;-76
2021/12/10 09:55:13;;;;;;;24.08;13.05;;;;;;;6.03;100.00;100071.34;5032444;28;20674;-77
2021/12/10 09:57:40;;;;;;;26.77;14.77;;;;;;;6.01;100.00;100071.19;5032655;28;20180;-76
2021/12/10 10:00:14;;;;;;;24.75;13.27;;;;;;;5.96;100.00;100057.13;5032311;28;20175;-76
2021/12/10 10:02:41;;;;;;;28.45;16.10;;;;;;;6.04;100.00;100060.41;5032643;28;20164;-76
2021/12/10 10:05:08;;;;;;;25.23;14.75;;;;;;;5.94;100.00;100035.72;5032153;28;20176;-77
2021/12/10 10:07:36;;;;;;;26.33;14.38;;;;;;;6.11;100.00;100051.03;5032266;28;20172;-78
2021/12/10 10:10:10;;;;;;;31.17;16.52;;;;;;;6.13;100.00;100064.75;5031895;28;20187;-78
2021/12/10 10:12:42;;;;;;;41.03;20.75;;;;;;;6.11;100.00;100033.22;5031989;28;20647;-76
2021/12/10 10:15:16;;;;;;;35.53;17.92;;;;;;;6.28;100.00;100049.22;5032302;28;20206;-77
2021/12/10 10:17:42;;;;;;;37.95;17.75;;;;;;;6.31;100.00;100039.34;5032102;28;20199;-78
2021/12/10 10:20:11;;;;;;;35.75;18.75;;;;;;;6.37;100.00;100037.41;5014219;28;20297;-77
2021/12/10 10:22:37;;;;;;;32.33;18.10;;;;;;;6.45;100.00;100036.50;5032216;28;20207;-77
2021/12/10 10:25:08;;;;;;;28.83;15.10;;;;;;;6.54;100.00;100034.84;5031875;28;20176;-77
2021/12/10 10:27:36;;;;;;;21.73;11.95;;;;;;;6.53;100.00;100009.22;5032107;28;20179;-77
2021/12/10 10:30:31;;;;;;;22.98;12.82;;;;;;;6.61;100.00;100004.13;5031738;28;20183;-77
2021/12/10 10:33:00;;;;;;;21.65;11.25;;;;;;;6.66;100.00;100007.09;5030013;28;20188;-77
2021/12/10 10:35:38;;;;;;;16.58;11.32;;;;;;;6.92;100.00;100001.97;5032037;28;20545;-77
2021/12/10 10:38:05;;;;;;;13.43;9.27;;;;;;;7.12;100.00;99984.34;5031498;28;20171;-78
2021/12/10 10:40:35;;;;;;;12.25;8.90;;;;;;;7.28;100.00;99985.75;5031904;28;20199;-77
2021/12/10 10:43:02;;;;;;;18.75;11.55;;;;;;;7.35;99.83;99988.09;5031627;28;20172;-78
2021/12/10 10:45:32;;;;;;;16.52;11.15;;;;;;;7.30;98.37;99977.50;5031710;28;20180;-77
2021/12/10 10:47:59;;;;;;;19.60;11.70;;;;;;;7.45;97.93;100010.28;5031275;28;20236;-77
2021/12/10 10:50:29;;;;;;;17.45;10.93;;;;;;;7.47;97.55;99991.78;5031718;28;20184;-77
2021/12/10 10:52:58;;;;;;;18.08;10.88;;;;;;;7.61;96.27;100010.94;5031610;28;20188;-77
2021/12/10 10:55:37;;;;;;;15.95;10.68;;;;;;;7.58;95.87;100001.34;5031556;28;20255;-78
2021/12/10 10:58:10;;;;;;;12.18;9.05;;;;;;;7.61;95.73;99998.19;5031521;28;20195;-76
2021/12/10 11:00:44;;;;;;;13.68;8.80;;;;;;;7.63;96.47;100000.13;5031496;28;20200;-77
2021/12/10 11:03:13;;;;;;;13.60;9.38;;;;;;;7.46;96.32;99966.19;5031624;28;20523;-75
2021/12/10 11:05:49;;;;;;;19.08;11.48;;;;;;;7.61;95.87;100006.72;5031262;28;20297;-76
2021/12/10 11:08:27;;;;;;;16.25;10.65;;;;;;;7.20;94.62;99954.50;5031732;28;20714;-78
2021/12/10 11:10:58;;;;;;;13.05;8.73;;;;;;;7.32;96.33;99995.47;5031561;28;20198;-77
2021/12/10 11:13:25;;;;;;;17.50;10.25;;;;;;;7.26;97.50;99994.91;5031353;28;20164;-78
2021/12/10 11:16:06;;;;;;;12.65;8.82;;;;;;;7.08;97.44;99972.06;5030851;28;20282;-76
2021/12/10 11:19:06;;;;;;;13.73;8.63;;;;;;;7.26;98.05;100005.09;5031478;28;20179;-76
2021/12/10 11:21:47;;;;;;;22.30;10.85;;;;;;;7.28;99.13;99995.94;5016055;28;20192;-77
2021/12/10 11:24:26;;;;;;;86.57;42.95;;;;;;;7.34;100.00;99989.75;5031440;28;20549;-77
2021/12/10 11:26:57;;;;;;;108.50;47.55;;;;;;;7.36;100.00;99975.53;5030875;28;20176;-78
2021/12/10 11:29:51;;;;;;;784.95;476.88;;;;;;;7.47;100.00;99975.59;5030915;28;20725;-77
2021/12/10 11:32:25;;;;;;;332.73;138.90;;;;;;;7.64;100.00;99960.22;5023398;28;20756;-77